createdAt,value
2022-09-25T00:00:33.782Z,1.90
2022-09-25T00:01:37.125Z,1.95
2022-09-25T00:02:44.384Z,2.02
2022-09-25T00:03:53.994Z,2.01
2022-09-25T00:04:56.440Z,2.06
2022-09-25T00:06:05.897Z,1.87
2022-09-25T00:07:08.882Z,1.95
2022-09-25T00:08:11.719Z,1.92
2022-09-25T00:09:21.674Z,1.91
2022-09-25T00:10:24.749Z,1.91
2022-09-25T00:11:27.824Z,1.67
2022-09-25T00:12:37.342Z,1.83
2022-09-25T00:13:40.321Z,1.84
2022-09-25T00:14:44.441Z,1.80
2022-09-25T00:15:47.499Z,1.99
2022-09-25T00:16:50.646Z,1.96
2022-09-25T00:17:53.789Z,1.86
2022-09-25T00:18:56.644Z,2.01
2022-09-25T00:19:59.921Z,1.76
2022-09-25T00:21:03.133Z,2.06
2022-09-25T00:22:06.488Z,2.00
2022-09-25T00:23:09.781Z,1.80
2022-09-25T00:24:13.844Z,2.03
2022-09-25T00:25:17.070Z,1.92
2022-09-25T00:26:20.366Z,1.81
2022-09-25T00:27:23.744Z,2.04
2022-09-25T00:28:28.353Z,2.02
2022-09-25T00:29:31.125Z,1.83
2022-09-25T00:30:34.643Z,1.81
2022-09-25T00:32:05.435Z,1.85
2022-09-25T00:33:16.679Z,1.48
2022-09-25T00:34:20.438Z,1.91
2022-09-25T00:35:24.817Z,1.92
2022-09-25T00:36:28.019Z,1.87
2022-09-25T00:37:32.525Z,1.74
2022-09-25T00:38:36.307Z,1.78
2022-09-25T00:39:39.695Z,1.75
2022-09-25T00:40:42.081Z,1.80
2022-09-25T00:41:45.142Z,1.63
2022-09-25T00:42:48.216Z,1.69
2022-09-25T00:43:52.940Z,1.75
2022-09-25T00:44:56.226Z,1.53
2022-09-25T00:45:59.340Z,1.56
2022-09-25T00:47:02.511Z,1.55
2022-09-25T00:48:08.232Z,1.48
2022-09-25T00:49:11.098Z,1.68
2022-09-25T00:50:14.274Z,1.74
2022-09-25T00:54:04.179Z,1.72
2022-09-25T00:55:08.069Z,1.67
2022-09-25T00:56:11.047Z,1.56
2022-09-25T00:57:15.507Z,1.41
2022-09-25T00:58:18.739Z,1.56
2022-09-25T00:59:26.020Z,1.31
2022-09-25T01:00:28.889Z,1.61
2022-09-25T01:01:34.384Z,1.69
2022-09-25T01:03:48.794Z,1.29
2022-09-25T01:04:52.076Z,1.46
2022-09-25T01:05:55.566Z,1.43
2022-09-25T01:06:58.865Z,1.34
2022-09-25T01:08:01.919Z,1.46
2022-09-25T01:09:05.624Z,1.48
2022-09-25T01:10:09.506Z,1.75
2022-09-25T01:11:15.460Z,1.56
2022-09-25T01:12:18.435Z,1.44
2022-09-25T01:13:21.083Z,1.68
2022-09-25T01:14:23.880Z,1.62
2022-09-25T01:15:27.468Z,1.64
2022-09-25T01:16:30.399Z,1.57
2022-09-25T01:17:33.731Z,1.63
2022-09-25T01:18:36.621Z,1.56
2022-09-25T01:19:40.311Z,1.85
2022-09-25T01:20:44.907Z,1.59
2022-09-25T01:21:48.114Z,1.43
2022-09-25T01:22:51.381Z,1.46
2022-09-25T01:23:54.249Z,1.44
2022-09-25T01:24:57.133Z,1.15
2022-09-25T01:26:00.222Z,1.35
2022-09-25T01:27:03.593Z,1.25
2022-09-25T01:28:07.819Z,1.25
2022-09-25T01:29:11.088Z,1.34
2022-09-25T01:30:14.276Z,1.50
2022-09-25T01:31:18.721Z,1.34
2022-09-25T01:32:21.863Z,1.54
2022-09-25T01:33:25.041Z,1.42
2022-09-25T01:34:28.219Z,1.28
2022-09-25T01:35:32.220Z,1.44
2022-09-25T01:36:35.522Z,1.51
2022-09-25T01:37:39.930Z,1.30
2022-09-25T01:38:49.103Z,1.23
2022-09-25T01:39:58.068Z,1.35
2022-09-25T01:41:01.431Z,1.34
2022-09-25T01:42:06.073Z,1.31
2022-09-25T01:43:08.832Z,1.29
2022-09-25T01:44:12.420Z,1.17
2022-09-25T01:45:16.238Z,1.48
2022-09-25T01:46:19.395Z,1.59
2022-09-25T01:47:23.808Z,1.54
2022-09-25T01:48:42.985Z,1.53
2022-09-25T01:49:46.405Z,1.50
2022-09-25T01:50:49.953Z,1.37
2022-09-25T01:51:54.860Z,1.44
2022-09-25T01:53:01.479Z,1.46
2022-09-25T01:54:05.120Z,1.43
2022-09-25T01:55:08.301Z,1.54
2022-09-25T01:56:12.069Z,1.60
2022-09-25T01:57:20.516Z,1.50
2022-09-25T01:58:23.490Z,1.63
2022-09-25T01:59:26.661Z,1.71
2022-09-25T02:00:29.741Z,1.74
2022-09-25T02:01:32.725Z,1.65
2022-09-25T02:02:35.749Z,1.87
2022-09-25T02:03:39.088Z,1.65
2022-09-25T02:04:41.969Z,1.59
2022-09-25T02:05:44.732Z,1.52
2022-09-25T02:06:48.120Z,1.55
2022-09-25T02:07:51.300Z,1.49
2022-09-25T02:08:54.490Z,1.61
2022-09-25T02:09:57.367Z,1.62
2022-09-25T02:11:00.552Z,1.46
2022-09-25T02:12:04.653Z,1.64
2022-09-25T02:13:07.929Z,1.61
2022-09-25T02:14:11.263Z,1.49
2022-09-25T02:15:14.391Z,1.43
2022-09-25T02:16:16.995Z,1.52
2022-09-25T02:17:19.830Z,1.57
2022-09-25T02:18:23.128Z,1.52
2022-09-25T02:19:26.820Z,1.67
2022-09-25T02:20:30.316Z,1.58
2022-09-25T02:21:33.481Z,1.54
2022-09-25T02:22:36.564Z,1.64
2022-09-25T02:23:39.645Z,1.54
2022-09-25T02:24:43.130Z,1.62
2022-09-25T02:25:46.554Z,1.41
2022-09-25T02:26:49.860Z,1.33
2022-09-25T02:28:01.012Z,1.44
2022-09-25T02:29:15.835Z,1.49
2022-09-25T02:30:19.628Z,1.50
2022-09-25T02:31:22.699Z,1.55
2022-09-25T02:32:26.000Z,1.55
2022-09-25T02:33:28.961Z,1.50
2022-09-25T02:34:31.833Z,1.55
2022-09-25T02:35:35.020Z,1.42
2022-09-25T02:36:38.304Z,1.42
2022-09-25T02:37:41.252Z,1.46
2022-09-25T02:38:44.165Z,1.45
2022-09-25T02:39:49.593Z,1.55
2022-09-25T02:40:53.180Z,1.45
2022-09-25T02:41:57.389Z,1.55
2022-09-25T02:43:03.168Z,1.53
2022-09-25T02:44:06.677Z,1.47
2022-09-25T02:45:10.215Z,1.38
2022-09-25T02:46:13.649Z,1.39
2022-09-25T02:47:16.783Z,1.48
2022-09-25T02:48:19.866Z,1.48
2022-09-25T02:49:26.533Z,1.53
2022-09-25T02:50:30.252Z,1.34
2022-09-25T02:51:34.229Z,1.30
2022-09-25T02:52:43.253Z,1.36
2022-09-25T02:53:46.306Z,1.60
2022-09-25T02:54:49.190Z,1.46
2022-09-25T02:55:51.863Z,1.48
2022-09-25T02:56:57.710Z,1.58
2022-09-25T02:57:59.550Z,1.35
2022-09-25T02:59:02.637Z,1.36
2022-09-25T03:00:05.932Z,1.52
2022-09-25T03:01:09.458Z,1.72
2022-09-25T03:02:13.052Z,1.41
2022-09-25T03:03:16.702Z,1.30
2022-09-25T03:04:19.799Z,1.48
2022-09-25T03:05:22.864Z,1.38
2022-09-25T03:06:25.581Z,1.35
2022-09-25T03:07:28.897Z,1.25
2022-09-25T03:08:31.783Z,1.27
2022-09-25T03:09:35.576Z,1.22
2022-09-25T03:10:38.553Z,1.46
2022-09-25T03:11:43.375Z,1.21
2022-09-25T03:12:46.454Z,1.35
2022-09-25T03:13:49.432Z,1.65
2022-09-25T03:14:52.823Z,1.49
2022-09-25T03:15:55.904Z,1.52
2022-09-25T03:16:59.016Z,1.78
2022-09-25T03:18:02.061Z,1.91
2022-09-25T03:19:05.043Z,1.80
2022-09-25T03:20:07.905Z,1.88
2022-09-25T03:21:10.881Z,1.85
2022-09-25T03:22:16.240Z,2.08
2022-09-25T03:23:19.408Z,1.91
2022-09-25T03:24:22.712Z,1.99
2022-09-25T03:25:25.768Z,1.96
2022-09-25T03:26:28.959Z,1.88
2022-09-25T03:27:31.826Z,1.81
2022-09-25T03:28:35.220Z,1.90
2022-09-25T03:29:38.184Z,1.83
2022-09-25T03:30:41.056Z,2.12
2022-09-25T03:33:04.723Z,1.94
2022-09-25T03:34:07.912Z,1.95
2022-09-25T03:35:10.884Z,2.19
2022-09-25T03:36:14.695Z,2.20
2022-09-25T03:37:17.562Z,1.96
2022-09-25T03:38:21.069Z,2.08
2022-09-25T03:39:24.124Z,2.27
2022-09-25T03:40:27.086Z,2.25
2022-09-25T03:41:30.517Z,2.19
2022-09-25T03:42:33.363Z,1.89
2022-09-25T03:43:36.340Z,2.07
2022-09-25T03:44:39.521Z,2.25
2022-09-25T03:45:43.223Z,2.13
2022-09-25T03:46:45.887Z,2.28
2022-09-25T03:47:48.869Z,2.21
2022-09-25T03:48:52.462Z,2.32
2022-09-25T03:49:54.934Z,2.14
2022-09-25T03:50:58.001Z,2.08
2022-09-25T03:52:01.285Z,2.27
2022-09-25T03:53:04.467Z,2.30
2022-09-25T03:54:07.540Z,2.36
2022-09-25T03:55:11.440Z,2.40
2022-09-25T03:56:14.827Z,2.27
2022-09-25T03:57:17.906Z,2.51
2022-09-25T03:58:20.582Z,2.18
2022-09-25T03:59:23.661Z,2.25
2022-09-25T04:00:27.059Z,2.14
2022-09-25T04:01:30.238Z,2.50
2022-09-25T04:02:33.038Z,2.37
2022-09-25T04:03:36.183Z,2.37
2022-09-25T04:04:39.661Z,2.40
2022-09-25T04:05:43.302Z,2.28
2022-09-25T04:06:46.551Z,2.40
2022-09-25T04:08:01.405Z,2.32
2022-09-25T04:09:04.171Z,2.08
2022-09-25T04:10:07.252Z,1.96
2022-09-25T04:11:10.339Z,2.07
2022-09-25T04:12:13.453Z,2.27
2022-09-25T04:13:17.114Z,2.14
2022-09-25T04:14:20.294Z,2.48
2022-09-25T04:15:24.390Z,2.10
2022-09-25T04:16:28.058Z,2.22
2022-09-25T04:17:30.752Z,2.29
2022-09-25T04:18:33.430Z,2.26
2022-09-25T04:19:37.025Z,2.34
2022-09-25T04:20:45.976Z,2.26
2022-09-25T04:21:49.523Z,2.17
2022-09-25T04:22:53.529Z,2.28
2022-09-25T04:23:56.410Z,2.39
2022-09-25T04:24:59.698Z,2.09
2022-09-25T04:26:11.096Z,2.52
2022-09-25T04:27:29.192Z,2.12
2022-09-25T04:28:34.736Z,2.05
2022-09-25T04:29:48.563Z,2.09
2022-09-25T04:30:52.153Z,2.11
2022-09-25T04:31:55.542Z,2.21
2022-09-25T04:32:58.833Z,2.14
2022-09-25T04:34:02.029Z,1.96
2022-09-25T04:35:04.868Z,1.94
2022-09-25T04:36:08.064Z,2.03
2022-09-25T04:37:13.490Z,1.92
2022-09-25T04:38:21.706Z,1.94
2022-09-25T04:39:28.254Z,1.94
2022-09-25T04:40:31.553Z,1.75
2022-09-25T04:41:37.393Z,1.89
2022-09-25T04:42:40.872Z,1.93
2022-09-25T04:43:44.673Z,2.00
2022-09-25T04:44:48.257Z,1.85
2022-09-25T04:45:56.037Z,2.01
2022-09-25T04:46:59.138Z,1.92
2022-09-25T04:48:02.321Z,1.77
2022-09-25T04:49:09.073Z,1.88
2022-09-25T04:50:23.980Z,1.72
2022-09-25T04:51:27.442Z,1.77
2022-09-25T04:53:49.865Z,1.70
2022-09-25T04:54:55.202Z,1.66
2022-09-25T04:56:05.497Z,1.77
2022-09-25T04:57:12.796Z,1.77
2022-09-25T04:58:19.591Z,1.84
2022-09-25T05:00:26.045Z,1.79
2022-09-25T05:01:28.605Z,1.66
2022-09-25T05:02:35.165Z,1.62
2022-09-25T05:03:39.846Z,1.74
2022-09-25T05:04:42.975Z,1.73
2022-09-25T05:05:49.250Z,1.49
2022-09-25T05:06:58.098Z,1.60
2022-09-25T05:08:01.539Z,1.66
2022-09-25T05:09:07.782Z,1.64
2022-09-25T05:10:13.990Z,1.61
2022-09-25T05:11:17.442Z,1.56
2022-09-25T05:12:21.240Z,1.54
2022-09-25T05:13:24.611Z,1.53
2022-09-25T05:14:29.437Z,1.58
2022-09-25T05:15:32.303Z,1.49
2022-09-25T05:16:35.679Z,1.48
2022-09-25T05:17:42.371Z,1.60
2022-09-25T05:18:47.083Z,1.54
2022-09-25T05:19:50.065Z,1.47
2022-09-25T05:20:53.653Z,1.64
2022-09-25T05:21:57.663Z,1.59
2022-09-25T05:23:00.730Z,1.44
2022-09-25T05:24:07.438Z,1.83
2022-09-25T05:25:17.529Z,1.61
2022-09-25T05:26:25.545Z,1.79
2022-09-25T05:27:30.864Z,1.63
2022-09-25T05:29:58.622Z,1.52
2022-09-25T05:33:43.916Z,1.60
2022-09-25T05:38:57.437Z,1.73
2022-09-25T05:40:00.241Z,1.63
2022-09-25T05:41:06.708Z,1.61
2022-09-25T05:42:09.675Z,1.79
2022-09-25T05:43:13.287Z,1.75
2022-09-25T05:44:18.831Z,1.71
2022-09-25T05:45:22.085Z,1.86
2022-09-25T05:46:25.159Z,1.73
2022-09-25T05:48:48.768Z,1.61
2022-09-25T05:49:52.230Z,1.79
2022-09-25T05:50:55.202Z,1.54
2022-09-25T05:51:58.628Z,1.55
2022-09-25T05:53:02.740Z,1.49
2022-09-25T05:56:47.267Z,1.75
2022-09-25T05:57:52.127Z,1.64
2022-09-25T05:58:55.368Z,1.79
2022-09-25T06:00:03.313Z,1.77
2022-09-25T06:01:09.669Z,1.69
2022-09-25T06:02:13.959Z,1.61
2022-09-25T06:04:41.003Z,1.59
2022-09-25T06:05:44.012Z,1.75
2022-09-25T06:06:47.787Z,1.55
2022-09-25T06:08:03.948Z,1.45
2022-09-25T06:09:10.833Z,1.40
2022-09-25T06:10:19.720Z,1.57
2022-09-25T06:11:23.550Z,1.66
2022-09-25T06:12:30.663Z,1.69
2022-09-25T06:13:36.533Z,1.54
2022-09-25T06:14:44.887Z,1.38
2022-09-25T06:17:07.693Z,1.43
2022-09-25T06:18:10.752Z,1.45
2022-09-25T06:19:14.560Z,1.39
2022-09-25T06:20:17.895Z,1.48
2022-09-25T06:21:24.550Z,1.67
2022-09-25T06:24:03.642Z,1.45
2022-09-25T06:30:29.632Z,1.52
2022-09-25T06:31:44.757Z,1.55
2022-09-25T06:34:12.415Z,1.52
2022-09-25T06:39:03.949Z,1.55
2022-09-25T06:40:08.141Z,1.51
2022-09-25T06:41:12.073Z,1.34
2022-09-25T06:43:35.415Z,1.73
2022-09-25T06:44:50.276Z,1.69
2022-09-25T06:47:18.657Z,1.41
2022-09-25T06:48:19.414Z,1.46
2022-09-25T06:49:28.307Z,1.56
2022-09-25T06:52:05.601Z,1.55
2022-09-25T06:53:11.814Z,1.78
2022-09-25T06:54:32.547Z,1.79
2022-09-25T06:55:38.843Z,2.13
2022-09-25T06:56:53.225Z,2.27
2022-09-25T06:58:11.632Z,1.74
2022-09-25T06:59:16.857Z,1.87
2022-09-25T07:00:33.994Z,1.77
2022-09-25T07:05:40.642Z,1.61
2022-09-25T07:08:07.585Z,1.49
2022-09-25T07:09:20.871Z,1.69
2022-09-25T07:10:18.845Z,1.55
2022-09-25T07:11:24.970Z,1.64
2022-09-25T07:12:29.510Z,1.67
2022-09-25T07:13:47.046Z,1.66
2022-09-25T07:14:50.491Z,1.65
2022-09-25T07:15:55.620Z,1.49
2022-09-25T07:17:07.274Z,1.57
2022-09-25T07:18:11.823Z,1.54
2022-09-25T07:19:15.615Z,1.56
2022-09-25T07:20:23.274Z,1.58
2022-09-25T07:21:27.016Z,1.73
2022-09-25T07:22:29.643Z,1.62
2022-09-25T07:23:32.452Z,1.55
2022-09-25T07:24:40.969Z,1.54
2022-09-25T07:25:45.688Z,1.58
2022-09-25T07:26:48.223Z,1.70
2022-09-25T07:27:51.697Z,1.58
2022-09-25T07:28:59.161Z,1.56
2022-09-25T07:30:01.434Z,1.64
2022-09-25T07:31:04.115Z,1.74
2022-09-25T07:32:06.572Z,1.65
2022-09-25T07:33:21.572Z,1.62
2022-09-25T07:34:24.442Z,1.83
2022-09-25T07:35:38.845Z,1.67
2022-09-25T07:36:42.258Z,1.50
2022-09-25T07:37:45.696Z,1.59
2022-09-25T07:38:49.150Z,1.85
2022-09-25T07:41:13.651Z,2.00
2022-09-25T07:42:15.986Z,1.82
2022-09-25T07:43:18.213Z,1.62
2022-09-25T07:44:30.054Z,1.71
2022-09-25T07:45:24.442Z,1.89
2022-09-25T07:46:35.065Z,1.86
2022-09-25T07:47:37.463Z,2.06
2022-09-25T07:48:40.895Z,2.30
2022-09-25T07:49:43.234Z,2.06
2022-09-25T07:50:45.508Z,1.88
2022-09-25T07:51:47.790Z,2.44
2022-09-25T07:53:07.012Z,2.52
2022-09-25T07:54:09.326Z,2.27
2022-09-25T07:55:11.703Z,2.46
2022-09-25T07:56:14.080Z,2.39
2022-09-25T07:57:16.343Z,2.47
2022-09-25T07:58:18.600Z,2.55
2022-09-25T07:59:21.128Z,3.04
2022-09-25T08:00:23.406Z,3.30
2022-09-25T08:01:36.148Z,3.75
2022-09-25T08:02:38.164Z,4.56
2022-09-25T08:03:44.472Z,4.38
2022-09-25T08:04:47.042Z,3.97
2022-09-25T08:05:49.631Z,3.53
2022-09-25T08:06:52.147Z,2.92
2022-09-25T08:07:54.482Z,2.28
2022-09-25T08:08:56.776Z,2.17
2022-09-25T08:09:59.155Z,2.37
2022-09-25T08:11:03.032Z,2.50
2022-09-25T08:12:05.411Z,2.09
2022-09-25T08:13:07.658Z,2.25
2022-09-25T08:14:11.077Z,2.02
2022-09-25T08:15:17.191Z,2.28
2022-09-25T08:16:19.572Z,2.45
2022-09-25T08:17:22.115Z,2.12
2022-09-25T08:18:42.325Z,2.18
2022-09-25T08:19:44.602Z,2.27
2022-09-25T08:21:03.765Z,2.25
2022-09-25T08:22:06.342Z,2.32
2022-09-25T08:23:09.509Z,2.37
2022-09-25T08:24:12.359Z,2.45
2022-09-25T08:25:14.778Z,2.88
2022-09-25T08:26:17.391Z,2.47
2022-09-25T08:27:22.750Z,2.42
2022-09-25T08:28:25.128Z,2.35
2022-09-25T08:29:29.595Z,2.64
2022-09-25T08:30:44.264Z,2.64
2022-09-25T08:31:50.427Z,2.64
2022-09-25T08:32:56.463Z,2.54
2022-09-25T08:34:09.921Z,2.83
2022-09-25T08:35:03.018Z,3.03
2022-09-25T08:36:05.350Z,2.88
2022-09-25T08:37:07.928Z,3.04
2022-09-25T08:38:10.237Z,2.95
2022-09-25T08:39:23.248Z,2.90
2022-09-25T08:40:25.609Z,3.12
2022-09-25T08:41:28.276Z,3.05
2022-09-25T08:42:30.858Z,3.37
2022-09-25T08:43:38.008Z,3.25
2022-09-25T08:44:48.945Z,3.37
2022-09-25T08:45:47.785Z,3.45
2022-09-25T08:46:50.465Z,3.16
2022-09-25T08:47:52.963Z,3.37
2022-09-25T08:48:55.208Z,3.22
2022-09-25T08:49:57.604Z,3.32
2022-09-25T08:51:08.225Z,3.27
2022-09-25T08:52:10.410Z,2.96
2022-09-25T08:53:13.490Z,2.83
2022-09-25T08:54:16.135Z,3.12
2022-09-25T08:55:18.855Z,3.03
2022-09-25T08:56:21.427Z,3.95
2022-09-25T08:57:34.614Z,5.96
2022-09-25T08:58:37.186Z,4.64
2022-09-25T09:00:59.900Z,6.31
2022-09-25T09:05:01.046Z,8.59
2022-09-25T09:06:07.929Z,7.61
2022-09-25T09:07:26.200Z,7.31
2022-09-25T09:08:14.493Z,11.24
2022-09-25T09:09:17.348Z,21.62
2022-09-25T09:10:20.727Z,8.37
2022-09-25T09:11:23.331Z,7.49
2022-09-25T09:13:46.324Z,4.96
2022-09-25T09:14:48.672Z,4.35
2022-09-25T09:15:51.047Z,15.43
2022-09-25T09:16:56.230Z,4.54
2022-09-25T09:17:58.574Z,4.09
2022-09-25T09:19:11.401Z,3.98
2022-09-25T09:20:15.070Z,3.90
2022-09-25T09:21:17.639Z,3.92
2022-09-25T09:22:20.334Z,4.19
2022-09-25T09:23:24.545Z,4.55
2022-09-25T09:24:28.747Z,7.49
2022-09-25T09:25:35.825Z,13.90
2022-09-25T09:26:39.270Z,15.05
2022-09-25T09:27:41.834Z,19.25
2022-09-25T09:28:52.367Z,14.43
2022-09-25T09:29:55.040Z,6.69
2022-09-25T09:31:06.476Z,3.89
2022-09-25T09:32:14.088Z,5.27
2022-09-25T09:33:17.962Z,4.58
2022-09-25T09:34:40.973Z,4.14
2022-09-25T09:35:33.767Z,6.51
2022-09-25T09:37:55.783Z,3.29
2022-09-25T09:38:58.262Z,2.68
2022-09-25T09:40:00.654Z,2.83
2022-09-25T09:42:26.425Z,3.20
2022-09-25T09:43:29.002Z,3.01
2022-09-25T09:44:33.937Z,2.88
2022-09-25T09:45:39.620Z,2.91
2022-09-25T09:49:28.914Z,8.28
2022-09-25T09:50:31.351Z,4.33
2022-09-25T09:51:33.907Z,3.08
2022-09-25T09:52:37.174Z,3.04
2022-09-25T09:53:39.478Z,3.02
2022-09-25T09:54:42.048Z,2.95
2022-09-25T09:55:48.386Z,2.88
2022-09-25T09:56:50.734Z,3.01
2022-09-25T09:57:53.047Z,2.67
2022-09-25T09:58:55.471Z,4.27
2022-09-25T10:00:03.678Z,3.75
2022-09-25T10:01:21.996Z,3.30
2022-09-25T10:02:05.760Z,3.21
2022-09-25T10:04:28.540Z,3.05
2022-09-25T10:05:36.235Z,3.01
2022-09-25T10:06:43.351Z,2.68
2022-09-25T10:07:46.284Z,2.85
2022-09-25T10:08:48.489Z,2.45
2022-09-25T10:09:52.622Z,2.70
2022-09-25T10:10:55.017Z,2.82
2022-09-25T10:11:59.885Z,2.70
2022-09-25T10:13:06.257Z,2.51
2022-09-25T10:14:07.163Z,2.74
2022-09-25T10:15:09.556Z,2.74
2022-09-25T10:16:13.163Z,2.76
2022-09-25T10:17:15.562Z,2.44
2022-09-25T10:18:17.841Z,2.34
2022-09-25T10:19:20.170Z,2.99
2022-09-25T10:20:22.701Z,3.02
2022-09-25T10:21:28.333Z,2.74
2022-09-25T10:22:30.575Z,2.97
2022-09-25T10:23:36.830Z,3.12
2022-09-25T10:24:39.095Z,2.79
2022-09-25T10:25:41.407Z,2.47
2022-09-25T10:26:45.827Z,2.87
2022-09-25T10:27:52.122Z,2.99
2022-09-25T10:28:54.437Z,2.93
2022-09-25T10:29:56.955Z,2.70
2022-09-25T10:30:59.351Z,2.88
2022-09-25T10:32:01.833Z,3.05
2022-09-25T10:33:04.284Z,3.22
2022-09-25T10:34:06.537Z,3.60
2022-09-25T10:35:09.086Z,3.46
2022-09-25T10:36:12.668Z,3.87
2022-09-25T10:37:21.674Z,3.02
2022-09-25T10:38:25.609Z,2.88
2022-09-25T10:39:43.653Z,3.32
2022-09-25T10:40:38.760Z,3.53
2022-09-25T10:41:41.056Z,4.35
2022-09-25T10:43:00.009Z,4.08
2022-09-25T10:44:02.609Z,4.13
2022-09-25T10:45:04.980Z,3.95
2022-09-25T10:46:07.333Z,3.98
2022-09-25T10:47:09.741Z,4.44
2022-09-25T10:48:12.102Z,3.92
2022-09-25T10:49:14.724Z,3.59
2022-09-25T10:50:17.372Z,3.28
2022-09-25T10:51:19.917Z,3.04
2022-09-25T10:52:24.011Z,3.21
2022-09-25T10:53:26.643Z,3.29
2022-09-25T10:54:30.932Z,3.16
2022-09-25T10:55:33.465Z,3.26
2022-09-25T10:56:36.154Z,3.18
2022-09-25T10:57:38.817Z,3.02
2022-09-25T10:58:41.552Z,2.97
2022-09-25T10:59:44.356Z,3.00
2022-09-25T11:00:47.048Z,3.29
2022-09-25T11:01:50.551Z,3.32
2022-09-25T11:02:53.531Z,3.78
2022-09-25T11:03:56.003Z,4.36
2022-09-25T11:04:58.314Z,4.79
2022-09-25T11:06:00.614Z,4.49
2022-09-25T11:07:02.932Z,4.38
2022-09-25T11:08:05.248Z,3.92
2022-09-25T11:09:07.751Z,3.87
2022-09-25T11:10:10.111Z,3.45
2022-09-25T11:11:12.340Z,3.27
2022-09-25T11:12:20.329Z,3.32
2022-09-25T11:13:22.652Z,3.72
2022-09-25T11:14:24.900Z,3.76
2022-09-25T11:15:27.410Z,3.66
2022-09-25T11:16:30.023Z,3.48
2022-09-25T11:17:34.316Z,3.78
2022-09-25T11:18:36.850Z,3.41
2022-09-25T11:19:39.428Z,3.30
2022-09-25T11:20:44.575Z,3.26
2022-09-25T11:21:47.140Z,3.36
2022-09-25T11:22:50.503Z,2.99
2022-09-25T11:23:53.109Z,3.15
2022-09-25T11:25:00.872Z,3.17
2022-09-25T11:25:59.485Z,3.21
2022-09-25T11:27:01.807Z,3.46
2022-09-25T11:28:04.245Z,3.47
2022-09-25T11:29:11.779Z,3.04
2022-09-25T11:30:15.625Z,3.36
2022-09-25T11:31:17.917Z,3.11
2022-09-25T11:32:25.345Z,2.83
2022-09-25T11:33:28.037Z,3.34
2022-09-25T11:34:34.025Z,3.38
2022-09-25T11:35:45.133Z,3.72
2022-09-25T11:36:52.364Z,3.46
2022-09-25T11:37:56.136Z,3.78
2022-09-25T11:39:07.603Z,3.83
2022-09-25T11:41:36.005Z,3.69
2022-09-25T11:43:58.879Z,3.65
2022-09-25T11:45:01.269Z,3.78
2022-09-25T11:46:06.907Z,3.93
2022-09-25T11:47:09.276Z,4.33
2022-09-25T11:48:14.614Z,4.71
2022-09-25T11:49:21.966Z,4.63
2022-09-25T11:51:45.268Z,4.77
2022-09-25T11:52:47.541Z,5.48
2022-09-25T11:53:49.981Z,4.82
2022-09-25T11:54:53.581Z,4.53
2022-09-25T11:55:56.211Z,4.69
2022-09-25T11:56:58.930Z,4.21
2022-09-25T11:58:03.891Z,4.02
2022-09-25T11:59:09.717Z,3.92
2022-09-25T12:00:12.391Z,4.63
2022-09-25T12:01:14.987Z,4.45
2022-09-25T12:02:22.138Z,4.25
2022-09-25T12:03:24.920Z,3.96
2022-09-25T12:04:27.401Z,4.08
2022-09-25T12:05:30.412Z,3.83
2022-09-25T12:06:33.146Z,4.07
2022-09-25T12:07:35.617Z,3.81
2022-09-25T12:08:38.310Z,4.00
2022-09-25T12:11:01.166Z,3.86
2022-09-25T12:12:03.522Z,4.14
2022-09-25T12:13:05.821Z,3.96
2022-09-25T12:14:08.266Z,4.05
2022-09-25T12:15:10.508Z,4.22
2022-09-25T12:16:13.486Z,4.99
2022-09-25T12:17:24.419Z,5.76
2022-09-25T12:18:31.810Z,5.70
2022-09-25T12:19:30.922Z,5.68
2022-09-25T12:22:02.855Z,5.31
2022-09-25T12:23:11.105Z,5.05
2022-09-25T12:24:15.843Z,5.42
2022-09-25T12:25:19.842Z,5.39
2022-09-25T12:26:27.874Z,5.43
2022-09-25T12:27:31.833Z,4.97
2022-09-25T12:28:49.249Z,5.34
2022-09-25T12:29:52.114Z,6.16
2022-09-25T12:31:05.481Z,5.83
2022-09-25T12:32:05.416Z,6.09
2022-09-25T12:33:12.445Z,6.92
2022-09-25T12:34:14.799Z,5.39
2022-09-25T12:35:18.569Z,5.13
2022-09-25T12:36:20.873Z,5.13
2022-09-25T12:37:27.351Z,4.71
2022-09-25T12:38:27.123Z,4.86
2022-09-25T12:39:29.568Z,4.69
2022-09-25T12:40:34.996Z,5.27
2022-09-25T12:41:37.305Z,5.36
2022-09-25T12:42:43.427Z,5.68
2022-09-25T12:43:45.894Z,5.50
2022-09-25T12:44:48.123Z,5.71
2022-09-25T12:45:51.571Z,5.61
2022-09-25T12:46:53.984Z,5.67
2022-09-25T12:47:56.247Z,5.51
2022-09-25T12:48:59.366Z,5.74
2022-09-25T12:50:01.880Z,5.52
2022-09-25T12:51:05.651Z,5.86
2022-09-25T12:52:08.149Z,5.07
2022-09-25T12:53:10.514Z,4.71
2022-09-25T12:54:12.877Z,4.67
2022-09-25T12:55:18.567Z,5.05
2022-09-25T12:56:20.986Z,5.35
2022-09-25T12:57:23.432Z,5.05
2022-09-25T12:58:25.815Z,4.52
2022-09-25T12:59:31.018Z,4.90
2022-09-25T13:00:33.306Z,4.67
2022-09-25T13:01:35.853Z,4.66
2022-09-25T13:02:38.244Z,5.01
2022-09-25T13:03:40.544Z,5.15
2022-09-25T13:04:42.867Z,5.58
2022-09-25T13:05:45.215Z,4.98
2022-09-25T13:06:47.488Z,5.11
2022-09-25T13:07:52.653Z,5.19
2022-09-25T13:08:54.907Z,4.47
2022-09-25T13:09:57.246Z,4.88
2022-09-25T13:10:59.502Z,4.89
2022-09-25T13:12:01.865Z,5.14
2022-09-25T13:13:05.021Z,4.72
2022-09-25T13:14:08.139Z,4.60
2022-09-25T13:15:10.347Z,4.68
2022-09-25T13:16:12.686Z,5.08
2022-09-25T13:17:15.102Z,4.87
2022-09-25T13:18:17.602Z,4.59
2022-09-25T13:19:19.834Z,4.96
2022-09-25T13:20:22.504Z,5.15
2022-09-25T13:21:25.012Z,5.01
2022-09-25T13:22:27.251Z,4.85
2022-09-25T13:23:29.500Z,5.09
2022-09-25T13:24:31.912Z,5.29
2022-09-25T13:25:34.221Z,5.15
2022-09-25T13:26:36.652Z,5.17
2022-09-25T13:27:38.890Z,5.44
2022-09-25T13:28:41.151Z,5.55
2022-09-25T13:29:44.284Z,5.16
2022-09-25T13:30:47.039Z,6.18
2022-09-25T13:31:49.290Z,5.46
2022-09-25T13:32:51.551Z,5.40
2022-09-25T13:33:53.812Z,6.06
2022-09-25T13:34:56.180Z,5.56
2022-09-25T13:35:58.600Z,5.37
2022-09-25T13:37:00.842Z,5.35
2022-09-25T13:38:03.079Z,5.12
2022-09-25T13:39:05.360Z,5.63
2022-09-25T13:40:07.744Z,6.48
2022-09-25T13:41:10.240Z,6.86
2022-09-25T13:42:12.809Z,6.62
2022-09-25T13:43:15.323Z,6.78
2022-09-25T13:44:17.827Z,5.46
2022-09-25T13:45:20.326Z,5.38
2022-09-25T13:46:22.844Z,5.61
2022-09-25T13:47:25.638Z,5.98
2022-09-25T13:48:28.112Z,5.89
2022-09-25T13:49:30.570Z,6.11
2022-09-25T13:50:33.471Z,5.89
2022-09-25T13:51:36.132Z,5.99
2022-09-25T13:52:38.607Z,5.58
2022-09-25T13:53:41.230Z,6.22
2022-09-25T13:54:43.723Z,6.20
2022-09-25T13:55:46.216Z,5.46
2022-09-25T13:56:48.827Z,5.92
2022-09-25T13:57:51.259Z,5.74
2022-09-25T13:58:53.630Z,5.65
2022-09-25T13:59:56.082Z,5.75
2022-09-25T14:00:58.484Z,6.95
2022-09-25T14:02:01.041Z,6.50
2022-09-25T14:03:03.398Z,6.73
2022-09-25T14:04:05.647Z,6.24
2022-09-25T14:05:08.098Z,5.55
2022-09-25T14:06:10.418Z,5.86
2022-09-25T14:07:14.495Z,5.65
2022-09-25T14:08:17.014Z,5.45
2022-09-25T14:09:19.429Z,5.28
2022-09-25T14:10:21.668Z,6.08
2022-09-25T14:11:24.035Z,6.75
2022-09-25T14:12:26.339Z,6.12
2022-09-25T14:13:28.550Z,6.58
2022-09-25T14:14:30.911Z,6.47
2022-09-25T14:15:33.228Z,6.26
2022-09-25T14:16:35.829Z,5.82
2022-09-25T14:17:38.500Z,6.12
2022-09-25T14:18:41.046Z,5.66
2022-09-25T14:19:43.537Z,5.72
2022-09-25T14:20:46.148Z,5.96
2022-09-25T14:21:48.578Z,6.28
2022-09-25T14:22:50.987Z,6.32
2022-09-25T14:23:53.282Z,5.87
2022-09-25T14:24:55.508Z,6.31
2022-09-25T14:25:58.948Z,6.61
2022-09-25T14:27:01.228Z,7.03
2022-09-25T14:28:03.642Z,6.54
2022-09-25T14:29:05.983Z,6.70
2022-09-25T14:30:08.300Z,6.92
2022-09-25T14:31:10.603Z,6.62
2022-09-25T14:32:21.245Z,6.56
2022-09-25T14:33:16.725Z,6.87
2022-09-25T14:34:19.150Z,7.15
2022-09-25T14:35:21.422Z,6.47
2022-09-25T14:36:23.662Z,6.76
2022-09-25T14:37:30.010Z,6.80
2022-09-25T14:38:29.795Z,6.74
2022-09-25T14:39:32.274Z,6.25
2022-09-25T14:40:34.867Z,6.33
2022-09-25T14:41:37.409Z,6.69
2022-09-25T14:42:40.130Z,6.23
2022-09-25T14:43:42.842Z,7.15
2022-09-25T14:44:45.454Z,7.22
2022-09-25T14:45:48.084Z,6.99
2022-09-25T14:46:50.442Z,7.39
2022-09-25T14:47:52.932Z,6.83
2022-09-25T14:48:55.364Z,7.17
2022-09-25T14:49:57.886Z,7.11
2022-09-25T14:51:00.252Z,6.96
2022-09-25T14:52:02.596Z,7.21
2022-09-25T14:53:04.944Z,7.22
2022-09-25T14:54:07.643Z,7.25
2022-09-25T14:55:09.969Z,7.56
2022-09-25T14:56:12.280Z,7.40
2022-09-25T14:57:14.503Z,7.34
2022-09-25T14:58:16.813Z,7.27
2022-09-25T14:59:19.331Z,7.35
2022-09-25T15:00:21.652Z,6.66
2022-09-25T15:01:24.075Z,7.08
2022-09-25T15:02:26.470Z,7.05
2022-09-25T15:03:29.090Z,6.83
2022-09-25T15:04:31.565Z,7.16
2022-09-25T15:05:34.101Z,7.33
2022-09-25T15:06:36.687Z,6.90
2022-09-25T15:07:39.441Z,7.11
2022-09-25T15:08:41.900Z,7.05
2022-09-25T15:09:44.726Z,6.66
2022-09-25T15:10:47.291Z,7.14
2022-09-25T15:11:49.792Z,6.97
2022-09-25T15:12:52.042Z,6.12
2022-09-25T15:13:54.613Z,6.78
2022-09-25T15:14:57.019Z,6.62
2022-09-25T15:15:59.642Z,6.90
2022-09-25T15:17:01.869Z,6.73
2022-09-25T15:18:04.146Z,6.72